createdAt,value
2017-03-16T03:40:35.239Z,5.22
2017-03-16T03:41:34.993Z,5.52
2017-03-16T03:42:34.717Z,5.18
2017-03-16T03:43:34.446Z,4.58
2017-03-16T03:44:34.242Z,3.25
2017-03-16T03:45:34.689Z,9.58
2017-03-16T03:46:34.429Z,6.65
2017-03-16T03:47:34.151Z,7.77
2017-03-16T03:48:33.924Z,3.70
2017-03-16T03:49:37.670Z,4.38
2017-03-16T03:50:37.399Z,4.70
2017-03-16T03:51:37.121Z,3.62
2017-03-16T03:52:36.842Z,4.18
2017-03-16T03:53:36.589Z,5.37
2017-03-16T03:54:36.343Z,4.28
2017-03-16T03:55:36.831Z,4.85
2017-03-16T03:56:36.545Z,3.95
2017-03-16T03:57:36.287Z,4.97
2017-03-16T03:58:36.013Z,6.08
2017-03-16T03:59:35.762Z,3.82
2017-03-16T04:00:35.469Z,5.55
2017-03-16T04:01:35.203Z,4.65
2017-03-16T04:02:34.912Z,4.55
2017-03-16T04:03:34.647Z,5.75
2017-03-16T04:04:34.386Z,5.47
2017-03-16T04:05:34.104Z,5.57
2017-03-16T04:06:33.974Z,5.20
2017-03-16T04:07:33.674Z,4.62
2017-03-16T04:08:33.370Z,4.55
2017-03-16T04:09:33.107Z,3.87
2017-03-16T04:10:32.828Z,3.92
2017-03-16T04:11:32.604Z,3.77
2017-03-16T04:12:32.372Z,3.78
2017-03-16T04:13:32.136Z,3.90
2017-03-16T04:14:31.874Z,4.87
2017-03-16T04:15:31.593Z,3.90
2017-03-16T04:16:31.294Z,4.08
2017-03-16T04:17:31.005Z,3.48
2017-03-16T04:18:30.738Z,4.15
2017-03-16T04:19:30.493Z,6.37
2017-03-16T04:20:30.182Z,4.45
2017-03-16T04:21:29.897Z,5.98
2017-03-16T04:22:29.658Z,4.70
2017-03-16T04:23:29.402Z,4.65
2017-03-16T04:24:29.143Z,3.82
2017-03-16T04:25:28.858Z,5.08
2017-03-16T04:26:28.615Z,3.67
2017-03-16T04:27:28.823Z,4.88
2017-03-16T04:28:28.539Z,5.25
2017-03-16T04:29:28.297Z,5.23
2017-03-16T04:30:28.028Z,4.28
2017-03-16T04:31:27.790Z,3.93
2017-03-16T04:32:27.501Z,4.55
2017-03-16T04:33:27.232Z,5.93
2017-03-16T04:34:26.963Z,3.65
2017-03-16T04:35:26.681Z,3.52
2017-03-16T04:36:26.438Z,3.62
2017-03-16T04:37:26.173Z,5.33
2017-03-16T04:38:25.947Z,5.17
2017-03-16T04:39:25.690Z,4.00
2017-03-16T04:40:25.436Z,4.30
2017-03-16T04:41:25.154Z,4.50
2017-03-16T04:42:24.866Z,4.83
2017-03-16T04:43:25.337Z,5.77
2017-03-16T04:44:25.058Z,3.48
2017-03-16T04:45:24.790Z,5.02
2017-03-16T04:46:24.580Z,5.57
2017-03-16T04:47:24.296Z,4.22
2017-03-16T04:48:24.071Z,3.73
2017-03-16T04:49:23.795Z,4.85
2017-03-16T04:50:23.534Z,3.95
2017-03-16T04:51:23.313Z,6.23
2017-03-16T04:52:23.063Z,4.87
2017-03-16T04:53:22.838Z,5.23
2017-03-16T04:54:22.585Z,3.07
2017-03-16T04:55:22.380Z,3.67
2017-03-16T04:56:22.134Z,4.00
2017-03-16T04:57:21.864Z,4.67
2017-03-16T04:58:21.587Z,3.45
2017-03-16T04:59:21.342Z,4.40
2017-03-16T05:00:21.077Z,3.93
2017-03-16T05:01:20.809Z,4.22
2017-03-16T05:02:20.545Z,4.55
2017-03-16T05:03:20.290Z,3.90
2017-03-16T05:04:20.051Z,5.73
2017-03-16T05:05:19.826Z,3.98
2017-03-16T05:06:19.551Z,6.57
2017-03-16T05:07:19.313Z,4.53
2017-03-16T05:08:19.042Z,4.50
2017-03-16T05:09:18.846Z,4.75
2017-03-16T05:10:18.610Z,3.02
2017-03-16T05:11:19.339Z,3.00
2017-03-16T05:12:19.113Z,4.93
2017-03-16T05:13:18.882Z,5.02
2017-03-16T05:14:18.591Z,3.48
2017-03-16T05:15:18.382Z,4.30
2017-03-16T05:16:18.116Z,6.65
2017-03-16T05:17:17.898Z,4.25
2017-03-16T05:18:17.667Z,3.25
2017-03-16T05:19:17.686Z,3.88
2017-03-16T05:20:17.438Z,5.13
2017-03-16T05:21:17.173Z,4.40
2017-03-16T05:22:16.972Z,5.37
2017-03-16T05:23:16.720Z,4.87
2017-03-16T05:24:18.680Z,5.28
2017-03-16T05:25:18.411Z,5.43
2017-03-16T05:26:18.124Z,6.10
2017-03-16T05:27:17.867Z,4.82
2017-03-16T05:28:17.613Z,4.33
2017-03-16T05:29:17.342Z,4.18
2017-03-16T05:30:17.146Z,4.32
2017-03-16T05:31:17.009Z,5.17
2017-03-16T05:32:16.737Z,4.78
2017-03-16T05:33:16.471Z,3.90
2017-03-16T05:34:16.181Z,4.68
2017-03-16T05:35:16.304Z,5.23
2017-03-16T05:36:16.041Z,4.43
2017-03-16T05:37:15.753Z,4.15
2017-03-16T05:38:15.474Z,5.63
2017-03-16T05:39:15.261Z,4.77
2017-03-16T05:40:14.984Z,5.58
2017-03-16T05:41:14.703Z,4.77
2017-03-16T05:42:14.414Z,4.82
2017-03-16T05:43:14.135Z,4.50
2017-03-16T05:44:13.850Z,4.32
2017-03-16T05:45:13.633Z,5.82
2017-03-16T05:46:13.374Z,4.73
2017-03-16T05:47:13.155Z,3.55
2017-03-16T05:48:12.897Z,4.67
2017-03-16T05:49:12.596Z,4.45
2017-03-16T05:50:13.063Z,5.60
2017-03-16T05:51:12.787Z,4.83
2017-03-16T05:52:13.249Z,5.88
2017-03-16T05:53:13.028Z,6.23
2017-03-16T05:54:12.735Z,2.55
2017-03-16T05:55:12.471Z,4.70
2017-03-16T05:56:12.266Z,5.12
2017-03-16T05:57:12.001Z,3.95
2017-03-16T05:58:11.706Z,3.92
2017-03-16T05:59:11.434Z,5.35
2017-03-16T06:00:11.918Z,4.57
2017-03-16T06:01:11.720Z,3.97
2017-03-16T06:02:11.427Z,5.45
2017-03-16T06:03:11.154Z,5.18
2017-03-16T06:04:11.619Z,5.43
2017-03-16T06:05:11.349Z,5.07
2017-03-16T06:06:11.105Z,5.95
2017-03-16T06:07:10.843Z,4.63
2017-03-16T06:08:10.592Z,6.08
2017-03-16T06:09:10.335Z,5.23
2017-03-16T06:10:10.067Z,6.65
2017-03-16T06:11:10.538Z,4.57
2017-03-16T06:12:10.274Z,4.90
2017-03-16T06:13:10.047Z,4.33
2017-03-16T06:14:13.871Z,4.33
2017-03-16T06:15:13.703Z,4.30
2017-03-16T06:24:04.317Z,5.80
2017-03-16T06:25:04.102Z,4.75
2017-03-16T06:26:03.865Z,5.70
2017-03-16T06:27:03.645Z,4.90
2017-03-16T06:28:03.391Z,4.35
2017-03-16T06:29:03.132Z,7.15
2017-03-16T06:30:03.609Z,6.20
2017-03-16T06:31:13.113Z,4.68
2017-03-16T06:32:12.906Z,4.28
2017-03-16T06:33:12.632Z,6.03
2017-03-16T06:34:12.378Z,5.57
2017-03-16T06:35:12.101Z,5.87
2017-03-16T06:36:11.843Z,5.23
2017-03-16T06:37:11.566Z,6.25
2017-03-16T06:38:11.326Z,5.07
2017-03-16T06:39:11.804Z,5.92
2017-03-16T06:40:11.655Z,6.52
2017-03-16T06:41:11.385Z,6.20
2017-03-16T06:42:11.146Z,4.97
2017-03-16T06:43:10.883Z,5.45
2017-03-16T06:44:10.626Z,5.05
2017-03-16T06:45:10.358Z,4.98
2017-03-16T06:46:10.914Z,4.67
2017-03-16T06:47:10.638Z,4.50
2017-03-16T06:48:10.404Z,4.50
2017-03-16T06:49:10.174Z,4.98
2017-03-16T06:50:12.923Z,5.58
2017-03-16T06:51:12.730Z,5.68
2017-03-16T06:52:12.728Z,5.68
2017-03-16T06:53:12.533Z,5.27
2017-03-16T06:54:12.367Z,6.02
2017-03-16T06:55:12.140Z,5.50
2017-03-16T06:56:11.917Z,4.82
2017-03-16T06:57:11.635Z,6.48
2017-03-16T06:58:11.349Z,4.78
2017-03-16T06:59:11.098Z,4.82
2017-03-16T07:00:10.881Z,6.02
2017-03-16T07:01:10.661Z,5.23
2017-03-16T07:02:10.439Z,5.38
2017-03-16T07:03:10.220Z,4.22
2017-03-16T07:04:10.010Z,5.42
2017-03-16T07:05:09.806Z,4.77
2017-03-16T07:06:09.584Z,5.57
2017-03-16T07:07:09.332Z,3.20
2017-03-16T07:08:09.057Z,4.15
2017-03-16T07:09:08.793Z,4.40
2017-03-16T07:10:08.657Z,7.85
2017-03-16T07:11:08.417Z,5.62
2017-03-16T07:12:08.181Z,4.93
2017-03-16T07:13:07.970Z,4.53
2017-03-16T07:14:07.744Z,6.32
2017-03-16T07:15:07.473Z,5.43
2017-03-16T07:16:07.194Z,5.95
2017-03-16T07:17:06.918Z,4.85
2017-03-16T07:18:06.639Z,5.85
2017-03-16T07:19:06.433Z,6.83
2017-03-16T07:20:06.146Z,4.13
2017-03-16T07:21:05.897Z,4.93
2017-03-16T07:22:05.664Z,5.25
2017-03-16T07:23:05.555Z,6.53
2017-03-16T07:24:05.267Z,4.62
2017-03-16T07:25:05.011Z,7.90
2017-03-16T07:26:04.771Z,5.70
2017-03-16T07:27:04.498Z,8.50
2017-03-16T07:28:04.206Z,5.85
2017-03-16T07:29:04.027Z,5.68
2017-03-16T07:30:03.783Z,6.50
2017-03-16T07:31:03.535Z,5.38
2017-03-16T07:32:03.986Z,5.30
2017-03-16T07:33:03.701Z,5.83
2017-03-16T07:34:03.437Z,5.02
2017-03-16T07:35:03.213Z,5.83
2017-03-16T07:36:03.030Z,5.72
2017-03-16T07:37:02.768Z,5.15
2017-03-16T07:38:02.532Z,5.65
2017-03-16T07:39:02.258Z,4.95
2017-03-16T07:40:02.039Z,4.75
2017-03-16T07:41:01.766Z,4.20
2017-03-16T07:42:01.523Z,6.20
2017-03-16T07:43:01.254Z,4.53
2017-03-16T07:44:00.978Z,6.97
2017-03-16T07:45:00.715Z,6.30
2017-03-16T07:46:00.470Z,5.23
2017-03-16T07:47:00.206Z,5.30
2017-03-16T07:47:59.954Z,6.42
2017-03-16T07:48:59.672Z,5.03
2017-03-16T07:49:59.387Z,5.65
2017-03-16T07:50:59.217Z,6.02
2017-03-16T07:51:58.959Z,5.13
2017-03-16T07:52:59.426Z,5.23
2017-03-16T07:54:00.674Z,6.15
2017-03-16T07:55:01.978Z,7.12
2017-03-16T07:56:01.714Z,5.83
2017-03-16T07:57:01.436Z,5.60
2017-03-16T07:58:02.206Z,7.25
2017-03-16T07:59:02.374Z,6.68
2017-03-16T08:00:03.906Z,5.58
2017-03-16T08:01:04.626Z,5.30
2017-03-16T08:02:04.367Z,5.93
2017-03-16T08:03:04.086Z,6.92
2017-03-16T08:04:03.814Z,5.78
2017-03-16T08:05:04.257Z,5.53
2017-03-16T08:06:05.892Z,6.72
2017-03-16T08:07:05.595Z,5.47
2017-03-16T08:08:06.135Z,6.12
2017-03-16T08:09:07.347Z,3.77
2017-03-16T08:10:07.291Z,8.77
2017-03-16T08:11:07.046Z,7.53
2017-03-16T08:12:06.757Z,6.47
2017-03-16T08:13:06.487Z,5.53
2017-03-16T08:14:06.465Z,6.00
2017-03-16T08:15:08.390Z,8.05
2017-03-16T08:16:08.894Z,6.33
2017-03-16T08:17:08.642Z,5.32
2017-03-16T08:18:08.366Z,6.23
2017-03-16T08:19:11.719Z,6.13
2017-03-16T08:20:11.831Z,6.15
2017-03-16T08:21:11.558Z,5.15
2017-03-16T08:22:11.300Z,5.67
2017-03-16T08:23:12.297Z,5.55
2017-03-16T08:24:12.037Z,6.40
2017-03-16T08:25:11.789Z,8.20
2017-03-16T08:26:12.674Z,4.52
2017-03-16T08:27:12.398Z,4.68
2017-03-16T08:28:12.141Z,4.38
2017-03-16T08:29:12.040Z,6.08
2017-03-16T08:30:11.778Z,5.27
2017-03-16T08:31:11.509Z,7.58
2017-03-16T08:32:11.253Z,4.72
2017-03-16T08:33:10.986Z,4.57
2017-03-16T08:34:10.737Z,6.12
2017-03-16T08:35:10.532Z,5.80
2017-03-16T08:36:10.281Z,4.20
2017-03-16T08:37:10.213Z,8.35
2017-03-16T08:38:09.918Z,5.48
2017-03-16T08:39:09.690Z,5.78
2017-03-16T08:40:09.566Z,5.52
2017-03-16T08:41:09.278Z,5.45
2017-03-16T08:42:08.998Z,6.08
2017-03-16T08:43:08.729Z,5.10
2017-03-16T08:44:08.453Z,4.67
2017-03-16T08:45:08.218Z,5.38
2017-03-16T08:46:07.955Z,5.02
2017-03-16T08:47:07.737Z,6.63
2017-03-16T08:48:07.501Z,6.58
2017-03-16T08:49:07.226Z,5.75
2017-03-16T08:50:06.982Z,7.48
2017-03-16T08:51:06.708Z,7.72
2017-03-16T08:52:07.170Z,6.83
2017-03-16T08:53:06.935Z,5.80
2017-03-16T08:54:06.691Z,4.08
2017-03-16T08:55:06.535Z,5.62
2017-03-16T08:56:06.261Z,4.75
2017-03-16T08:57:06.007Z,5.47
2017-03-16T08:58:05.719Z,4.87
2017-03-16T08:59:07.619Z,6.55
2017-03-16T09:00:07.373Z,6.27
2017-03-16T09:01:07.107Z,5.88
2017-03-16T09:02:06.860Z,7.02
2017-03-16T09:03:06.833Z,5.93
2017-03-16T09:04:06.565Z,6.10
2017-03-16T09:05:06.323Z,6.18
2017-03-16T09:06:06.050Z,5.03
2017-03-16T09:07:05.792Z,5.22
2017-03-16T09:08:05.570Z,7.35
2017-03-16T09:09:05.619Z,7.50
2017-03-16T09:10:05.355Z,6.42
2017-03-16T09:11:05.115Z,4.28
2017-03-16T09:12:06.430Z,5.80
2017-03-16T09:13:06.942Z,7.08
2017-03-16T09:14:06.979Z,6.45
2017-03-16T09:15:09.024Z,6.07
2017-03-16T09:16:09.066Z,5.87
2017-03-16T09:17:08.844Z,6.12
2017-03-16T09:18:08.632Z,5.68
2017-03-16T09:19:08.343Z,6.35
2017-03-16T09:20:08.070Z,7.02
2017-03-16T09:21:07.799Z,7.60
2017-03-16T09:22:07.573Z,6.22
2017-03-16T09:23:07.311Z,7.95
2017-03-16T09:24:07.046Z,7.38
2017-03-16T09:25:06.845Z,6.60
2017-03-16T09:26:06.573Z,5.08
2017-03-16T09:27:06.321Z,6.88
2017-03-16T09:28:06.045Z,6.97
2017-03-16T09:29:05.809Z,7.67
2017-03-16T09:30:05.538Z,6.98
2017-03-16T09:31:05.261Z,7.43
2017-03-16T09:32:05.027Z,9.32
2017-03-16T09:33:04.831Z,7.05
2017-03-16T09:34:04.592Z,8.50
2017-03-16T09:35:04.364Z,8.32
2017-03-16T09:36:04.094Z,6.35
2017-03-16T09:37:04.587Z,8.22
2017-03-16T09:38:04.313Z,7.85
2017-03-16T09:39:05.247Z,7.62
2017-03-16T09:40:05.021Z,6.65
2017-03-16T09:41:04.794Z,7.68
2017-03-16T09:42:04.584Z,6.80
2017-03-16T09:43:04.307Z,8.03
2017-03-16T09:44:04.040Z,7.13
2017-03-16T09:45:04.148Z,6.57
2017-03-16T09:46:03.932Z,6.63
2017-03-16T09:47:03.678Z,6.87
2017-03-16T09:48:03.454Z,6.57
2017-03-16T09:49:03.295Z,8.38
2017-03-16T09:50:03.031Z,7.67
2017-03-16T09:51:02.794Z,6.78
2017-03-16T09:52:02.575Z,9.07
2017-03-16T09:53:02.393Z,6.93
2017-03-16T09:54:02.118Z,6.93
2017-03-16T09:55:01.903Z,6.52
2017-03-16T09:56:01.750Z,6.72
2017-03-16T09:57:01.474Z,6.70
2017-03-16T09:58:01.240Z,7.97
2017-03-16T09:59:00.934Z,7.12
2017-03-16T10:00:00.674Z,7.70
2017-03-16T10:01:00.412Z,7.03
2017-03-16T10:02:00.152Z,7.90
2017-03-16T10:02:59.894Z,6.85
2017-03-16T10:03:59.702Z,8.07
2017-03-16T10:04:59.422Z,9.30
2017-03-16T10:05:59.159Z,7.13
2017-03-16T10:06:59.626Z,7.72
2017-03-16T10:07:59.398Z,8.02
2017-03-16T10:08:59.140Z,7.82
2017-03-16T10:09:58.943Z,7.37
2017-03-16T10:10:58.667Z,8.13
2017-03-16T10:11:58.414Z,8.42
2017-03-16T10:12:58.208Z,8.10
2017-03-16T10:13:57.998Z,8.55
2017-03-16T10:14:57.742Z,9.20
2017-03-16T10:15:57.458Z,7.50
2017-03-16T10:16:57.214Z,6.73
2017-03-16T10:17:56.968Z,8.43
2017-03-16T10:19:03.106Z,8.27
2017-03-16T10:20:02.917Z,7.12
2017-03-16T10:21:02.790Z,6.85
2017-03-16T10:22:03.278Z,8.35
2017-03-16T10:23:03.031Z,9.45
2017-03-16T10:24:02.849Z,6.83
2017-03-16T10:25:02.607Z,8.97
2017-03-16T10:26:02.434Z,9.62
2017-03-16T10:27:02.202Z,7.20
2017-03-16T10:28:01.982Z,7.60
2017-03-16T10:29:01.722Z,6.93
2017-03-16T10:30:01.498Z,8.30
2017-03-16T10:31:01.223Z,9.43
2017-03-16T10:32:00.967Z,8.00
2017-03-16T10:33:00.686Z,7.42
2017-03-16T10:34:00.454Z,9.57
2017-03-16T10:35:00.265Z,5.22
2017-03-16T10:35:59.990Z,7.83
2017-03-16T10:36:59.710Z,8.72
2017-03-16T10:37:59.456Z,8.10
2017-03-16T10:38:59.186Z,8.42
2017-03-16T10:39:58.950Z,6.23
2017-03-16T10:40:58.726Z,8.02
2017-03-16T10:41:58.447Z,6.42
2017-03-16T10:42:58.173Z,6.88
2017-03-16T10:43:57.914Z,6.92
2017-03-16T10:44:58.389Z,8.05
2017-03-16T10:45:58.130Z,6.93
2017-03-16T10:46:57.838Z,8.35
2017-03-16T10:47:57.630Z,7.00
2017-03-16T10:48:57.355Z,8.68
2017-03-16T10:49:57.085Z,7.82
2017-03-16T10:50:56.846Z,8.52
2017-03-16T10:51:56.646Z,7.50
2017-03-16T10:52:56.426Z,7.32
2017-03-16T10:53:56.906Z,8.17
2017-03-16T10:54:56.627Z,8.60
2017-03-16T10:55:56.421Z,8.05
2017-03-16T10:56:56.190Z,7.73
2017-03-16T10:57:55.913Z,5.02
2017-03-16T10:58:55.655Z,6.58
2017-03-16T10:59:55.485Z,7.53
2017-03-16T11:00:55.217Z,6.90
2017-03-16T11:01:54.965Z,7.40
2017-03-16T11:02:54.711Z,6.87
2017-03-16T11:03:54.451Z,9.42
2017-03-16T11:04:54.786Z,8.83
2017-03-16T11:05:54.551Z,7.08
2017-03-16T11:06:54.411Z,7.63
2017-03-16T11:07:54.137Z,7.08
2017-03-16T11:08:53.872Z,9.12
2017-03-16T11:09:53.678Z,6.23
2017-03-16T11:10:53.442Z,8.62
2017-03-16T11:11:53.210Z,7.88
2017-03-16T11:12:52.967Z,8.77
2017-03-16T11:13:52.783Z,7.45
2017-03-16T11:14:52.508Z,7.02
2017-03-16T11:15:52.239Z,8.13
2017-03-16T11:16:52.014Z,8.35
2017-03-16T11:17:51.762Z,7.57
2017-03-16T11:18:51.502Z,6.03
2017-03-16T11:19:51.235Z,7.80
2017-03-16T11:20:51.011Z,9.08
2017-03-16T11:21:50.890Z,7.02
2017-03-16T11:22:50.649Z,8.08
2017-03-16T11:23:50.387Z,6.60
2017-03-16T11:24:50.874Z,8.82
2017-03-16T11:25:50.646Z,5.67
2017-03-16T11:26:50.387Z,7.03
2017-03-16T11:27:50.150Z,7.33
2017-03-16T11:28:49.894Z,7.90
2017-03-16T11:29:50.435Z,7.20
2017-03-16T11:30:50.276Z,7.40
2017-03-16T11:31:49.998Z,6.13
2017-03-16T11:32:49.758Z,6.57
2017-03-16T11:33:49.518Z,6.90
2017-03-16T11:34:49.257Z,9.57
2017-03-16T11:35:48.990Z,8.42
2017-03-16T11:36:48.714Z,7.97
2017-03-16T11:37:48.474Z,7.97
2017-03-16T11:38:48.200Z,5.30
2017-03-16T11:39:47.906Z,8.32
2017-03-16T11:40:47.658Z,5.90
2017-03-16T11:41:47.410Z,10.97
2017-03-16T11:42:47.158Z,5.92
2017-03-16T11:43:46.912Z,7.00
2017-03-16T11:44:46.686Z,6.60
2017-03-16T11:45:46.414Z,10.18
2017-03-16T11:46:46.178Z,7.22
2017-03-16T11:47:45.894Z,9.22
2017-03-16T11:48:45.646Z,8.95
2017-03-16T11:49:45.390Z,7.95
2017-03-16T11:50:45.110Z,7.02
2017-03-16T11:51:44.861Z,10.83
2017-03-16T11:52:44.591Z,7.90
2017-03-16T11:53:44.393Z,6.60
2017-03-16T11:54:44.135Z,7.08
2017-03-16T11:55:43.854Z,7.98
2017-03-16T11:56:43.617Z,6.18
2017-03-16T11:57:43.348Z,7.30
2017-03-16T11:58:43.211Z,7.72
2017-03-16T11:59:43.015Z,5.55
2017-03-16T12:00:42.754Z,5.75
2017-03-16T12:01:42.534Z,8.45
2017-03-16T12:02:43.046Z,6.38
2017-03-16T12:03:42.792Z,7.95
2017-03-16T12:04:42.520Z,5.53
2017-03-16T12:05:42.224Z,7.62
2017-03-16T12:06:41.983Z,7.05
2017-03-16T12:07:41.734Z,9.22
2017-03-16T12:08:41.495Z,6.95
2017-03-16T12:09:41.319Z,5.90
2017-03-16T12:10:41.057Z,8.65
2017-03-16T12:11:41.514Z,9.80
2017-03-16T12:12:41.268Z,9.62
2017-03-16T12:13:41.066Z,7.60
2017-03-16T12:14:40.798Z,9.18
2017-03-16T12:15:40.520Z,6.82
2017-03-16T12:16:40.518Z,7.63
2017-03-16T12:17:40.269Z,6.87
2017-03-16T12:18:40.037Z,5.35
2017-03-16T12:19:39.765Z,5.77
2017-03-16T12:20:40.279Z,6.48
2017-03-16T12:21:40.045Z,6.70
2017-03-16T12:22:39.775Z,8.32
2017-03-16T12:23:39.550Z,7.70
2017-03-16T12:24:39.277Z,8.93
2017-03-16T12:25:39.014Z,9.87
2017-03-16T12:26:38.858Z,8.22
2017-03-16T12:27:38.586Z,7.25
2017-03-16T12:28:38.380Z,5.87
2017-03-16T12:29:38.147Z,6.13
2017-03-16T12:30:37.888Z,7.67
2017-03-16T12:31:37.606Z,7.67
2017-03-16T12:32:37.412Z,7.75
2017-03-16T12:33:37.210Z,8.37
2017-03-16T12:34:37.678Z,7.52
2017-03-16T12:35:38.251Z,6.88
2017-03-16T12:36:38.892Z,7.88
2017-03-16T12:37:38.657Z,7.68
2017-03-16T12:38:38.407Z,8.72
2017-03-16T12:39:38.246Z,8.63
2017-03-16T12:40:37.986Z,7.60
2017-03-16T12:41:37.723Z,9.58
2017-03-16T12:42:37.459Z,8.62
2017-03-16T12:43:37.253Z,9.42
2017-03-16T12:44:37.042Z,7.55
2017-03-16T12:45:36.882Z,7.32
2017-03-16T12:46:36.734Z,7.15
2017-03-16T12:47:36.493Z,9.95
2017-03-16T12:48:36.221Z,13.43
2017-03-16T12:49:35.972Z,9.28
2017-03-16T12:50:35.697Z,11.00
2017-03-16T12:51:35.441Z,7.47
2017-03-16T12:52:35.193Z,10.02
2017-03-16T12:53:35.670Z,10.72
2017-03-16T12:54:35.458Z,9.38
2017-03-16T12:55:35.213Z,7.88
2017-03-16T12:56:34.939Z,7.87
2017-03-16T12:57:34.694Z,7.00
2017-03-16T12:58:34.449Z,9.65
2017-03-16T12:59:34.178Z,9.62
2017-03-16T13:00:33.995Z,8.25
2017-03-16T13:01:34.500Z,6.97
2017-03-16T13:02:34.235Z,8.22
2017-03-16T13:03:33.987Z,6.38
2017-03-16T13:04:33.739Z,8.02
2017-03-16T13:05:33.490Z,9.08
2017-03-16T13:06:33.410Z,8.60
2017-03-16T13:07:33.239Z,8.30
2017-03-16T13:08:32.962Z,7.80
2017-03-16T13:09:32.693Z,8.47
2017-03-16T13:10:32.428Z,7.22
2017-03-16T13:11:32.193Z,7.08
2017-03-16T13:12:32.006Z,6.33
2017-03-16T13:13:31.749Z,8.77
2017-03-16T13:14:31.482Z,8.50
2017-03-16T13:15:31.263Z,7.68
2017-03-16T13:16:31.063Z,8.78
2017-03-16T13:17:30.831Z,6.75
2017-03-16T13:18:30.647Z,7.63
2017-03-16T13:19:30.473Z,8.28
2017-03-16T13:20:30.222Z,9.58
2017-03-16T13:21:29.978Z,8.57
2017-03-16T13:22:29.723Z,7.90
2017-03-16T13:23:32.486Z,8.28
2017-03-16T13:24:32.289Z,9.33
2017-03-16T13:25:32.047Z,7.58
2017-03-16T13:26:31.786Z,7.75
2017-03-16T13:27:31.561Z,8.18
2017-03-16T13:28:31.302Z,6.53
2017-03-16T13:29:31.105Z,9.68
2017-03-16T13:30:30.898Z,8.80
2017-03-16T13:31:30.695Z,10.15
2017-03-16T13:32:30.503Z,8.38
2017-03-16T13:33:30.240Z,7.10
2017-03-16T13:34:29.988Z,8.70
2017-03-16T13:35:29.733Z,7.73
2017-03-16T13:36:29.469Z,7.40
2017-03-16T13:37:29.289Z,7.83
2017-03-16T13:38:29.087Z,9.70
2017-03-16T13:39:28.883Z,5.23
2017-03-16T13:40:28.710Z,9.32
2017-03-16T13:41:28.458Z,7.52
2017-03-16T13:42:28.701Z,7.70
2017-03-16T13:43:28.693Z,9.20
2017-03-16T13:44:28.446Z,10.65
2017-03-16T13:45:28.219Z,7.23
2017-03-16T13:46:27.986Z,5.92
2017-03-16T13:47:27.725Z,7.92
2017-03-16T13:48:27.460Z,9.23
2017-03-16T13:49:27.231Z,5.87
2017-03-16T13:50:27.025Z,9.95
2017-03-16T13:51:26.764Z,9.32
2017-03-16T13:52:26.531Z,7.02
2017-03-16T13:53:26.304Z,6.40
2017-03-16T13:54:26.107Z,7.13
2017-03-16T13:55:25.874Z,7.00
2017-03-16T13:56:25.630Z,8.85
2017-03-16T13:57:25.366Z,8.22
2017-03-16T13:58:25.096Z,6.45
2017-03-16T13:59:24.868Z,8.38
2017-03-16T14:00:24.629Z,7.15
2017-03-16T14:01:24.446Z,6.93
2017-03-16T14:02:24.477Z,7.47
2017-03-16T14:03:24.259Z,8.57
2017-03-16T14:04:24.026Z,7.03
2017-03-16T14:05:23.790Z,8.83
2017-03-16T14:06:23.562Z,6.47
2017-03-16T14:07:23.295Z,7.23
2017-03-16T14:08:23.019Z,7.78
2017-03-16T14:09:22.782Z,8.43
2017-03-16T14:10:22.571Z,8.05
2017-03-16T14:11:22.355Z,7.50
2017-03-16T14:12:22.187Z,6.48
2017-03-16T14:13:21.918Z,7.58
2017-03-16T14:14:21.701Z,6.93
2017-03-16T14:15:21.463Z,7.40
2017-03-16T14:16:21.220Z,7.27
2017-03-16T14:17:20.990Z,7.08
2017-03-16T14:18:20.702Z,7.67
2017-03-16T14:19:20.466Z,6.55
2017-03-16T14:20:20.282Z,7.03
2017-03-16T14:21:20.113Z,6.90
2017-03-16T14:22:19.855Z,5.57
2017-03-16T14:23:19.645Z,6.68
2017-03-16T14:24:19.396Z,7.37
2017-03-16T14:25:19.144Z,7.13
2017-03-16T14:26:19.155Z,8.02
2017-03-16T14:27:18.936Z,7.42
2017-03-16T14:28:18.734Z,9.32
2017-03-16T14:29:18.538Z,7.28
2017-03-16T14:30:18.284Z,6.70
2017-03-16T14:31:18.026Z,6.57
2017-03-16T14:32:17.767Z,6.97
2017-03-16T14:33:20.459Z,6.82
2017-03-16T14:34:20.190Z,7.88
2017-03-16T14:35:20.183Z,5.88
2017-03-16T14:36:19.888Z,5.38
2017-03-16T14:37:21.007Z,5.52
2017-03-16T14:38:21.502Z,6.83
2017-03-16T14:39:21.250Z,6.12
2017-03-16T14:40:21.082Z,6.70
2017-03-16T14:41:21.112Z,8.05
2017-03-16T14:42:20.855Z,7.27
2017-03-16T14:43:20.598Z,8.27
2017-03-16T14:44:20.342Z,6.65
2017-03-16T14:45:20.171Z,6.45
2017-03-16T14:46:19.945Z,6.00
2017-03-16T14:47:19.678Z,7.42
2017-03-16T14:48:19.770Z,6.90
2017-03-16T14:49:19.511Z,5.90
2017-03-16T14:50:19.282Z,5.83
2017-03-16T14:51:19.061Z,6.92
2017-03-16T14:52:18.807Z,6.23
2017-03-16T14:53:18.567Z,8.08
2017-03-16T14:54:18.333Z,6.82
2017-03-16T14:55:18.088Z,8.32
2017-03-16T14:56:17.847Z,7.00
2017-03-16T14:57:17.602Z,7.03
2017-03-16T14:58:17.400Z,6.45
2017-03-16T14:59:17.130Z,5.97
2017-03-16T15:00:16.926Z,6.82
2017-03-16T15:01:16.744Z,6.57
2017-03-16T15:02:16.502Z,5.55
2017-03-16T15:03:16.226Z,6.83
2017-03-16T15:04:15.981Z,7.17
2017-03-16T15:05:15.750Z,6.43
2017-03-16T15:06:15.503Z,7.52
2017-03-16T15:07:15.239Z,4.87
2017-03-16T15:08:14.979Z,5.15
2017-03-16T15:09:14.818Z,6.03
2017-03-16T15:10:14.523Z,4.63
2017-03-16T15:11:14.278Z,6.38
2017-03-16T15:12:14.149Z,6.00
2017-03-16T15:13:13.895Z,6.13
2017-03-16T15:14:13.637Z,5.75
2017-03-16T15:15:13.514Z,4.98
2017-03-16T15:16:13.234Z,5.52
2017-03-16T15:17:13.031Z,6.25
2017-03-16T15:18:12.818Z,5.17
2017-03-16T15:19:12.542Z,4.70
2017-03-16T15:20:12.335Z,6.32
2017-03-16T15:21:12.090Z,6.93
2017-03-16T15:22:11.856Z,4.65
2017-03-16T15:23:11.598Z,5.43
2017-03-16T15:24:11.358Z,4.43
2017-03-16T15:25:11.138Z,4.07
2017-03-16T15:26:11.665Z,4.90
2017-03-16T15:27:11.405Z,6.02
2017-03-16T15:28:11.133Z,5.28
2017-03-16T15:29:11.813Z,5.42
2017-03-16T15:30:11.730Z,5.53
2017-03-16T15:31:11.466Z,6.45
2017-03-16T15:32:11.332Z,5.40
2017-03-16T15:33:11.086Z,6.38
2017-03-16T15:34:10.813Z,6.10
2017-03-16T15:35:10.590Z,5.93
2017-03-16T15:36:10.310Z,6.63
2017-03-16T15:37:10.050Z,5.77
2017-03-16T15:38:09.788Z,6.48
2017-03-16T15:39:09.528Z,6.17
2017-03-16T15:40:10.199Z,5.93
2017-03-16T15:41:09.956Z,5.77
2017-03-16T15:42:10.443Z,7.60
2017-03-16T15:43:10.205Z,5.58
2017-03-16T15:44:10.060Z,6.87
2017-03-16T15:45:09.922Z,6.00
2017-03-16T15:46:09.653Z,7.03
2017-03-16T15:47:12.017Z,5.67
2017-03-16T15:48:12.408Z,6.90
2017-03-16T15:49:12.263Z,6.65
2017-03-16T15:50:12.005Z,6.07
2017-03-16T15:51:11.770Z,5.17
2017-03-16T15:52:11.515Z,5.18
2017-03-16T15:53:11.252Z,6.23
2017-03-16T15:54:11.031Z,5.70
2017-03-16T15:55:10.774Z,6.77
2017-03-16T15:56:10.523Z,5.38
2017-03-16T15:57:10.582Z,5.60
2017-03-16T15:58:10.341Z,5.87
2017-03-16T15:59:10.208Z,5.00
2017-03-16T16:00:09.975Z,6.02
2017-03-16T16:01:09.731Z,5.65
2017-03-16T16:02:09.518Z,5.47
2017-03-16T16:03:09.250Z,6.17
2017-03-16T16:04:08.995Z,4.50
2017-03-16T16:05:08.759Z,5.82
2017-03-16T16:06:08.491Z,6.00
2017-03-16T16:07:08.233Z,6.03
2017-03-16T16:08:07.970Z,5.37
2017-03-16T16:09:07.769Z,4.83
2017-03-16T16:10:07.522Z,5.90
2017-03-16T16:11:07.316Z,5.05
2017-03-16T16:12:07.114Z,4.92
2017-03-16T16:13:06.862Z,6.68
2017-03-16T16:14:06.620Z,7.00
2017-03-16T16:15:06.399Z,6.57
2017-03-16T16:16:06.191Z,6.13
2017-03-16T16:17:08.010Z,5.73
2017-03-16T16:18:07.773Z,5.75
2017-03-16T16:19:07.543Z,4.88
2017-03-16T16:20:07.367Z,4.52
2017-03-16T16:21:07.243Z,5.13
2017-03-16T16:22:06.990Z,5.15
2017-03-16T16:23:06.767Z,5.52
2017-03-16T16:24:06.556Z,5.78
2017-03-16T16:25:06.328Z,5.60
2017-03-16T16:26:06.145Z,5.00
2017-03-16T16:27:05.905Z,5.78
2017-03-16T16:28:05.694Z,6.42
2017-03-16T16:29:05.462Z,6.28
2017-03-16T16:30:05.230Z,7.35
2017-03-16T16:31:05.038Z,5.68
2017-03-16T16:32:04.849Z,7.00
2017-03-16T16:33:05.303Z,6.98
2017-03-16T16:34:06.022Z,6.40
2017-03-16T16:35:06.065Z,6.50
2017-03-16T16:36:05.842Z,5.45
2017-03-16T16:37:05.630Z,5.73
2017-03-16T16:38:05.389Z,6.30
2017-03-16T16:39:05.265Z,6.55
2017-03-16T16:40:05.515Z,7.73
2017-03-16T16:41:05.301Z,5.25
2017-03-16T16:42:05.194Z,8.10
2017-03-16T16:43:04.942Z,6.17
2017-03-16T16:44:04.730Z,8.27
2017-03-16T16:45:04.565Z,6.40
2017-03-16T16:46:04.439Z,5.92
2017-03-16T16:47:04.931Z,6.75
2017-03-16T16:48:04.735Z,7.12
2017-03-16T16:49:04.499Z,7.80
2017-03-16T16:50:04.297Z,6.85
2017-03-16T16:51:04.114Z,7.68
2017-03-16T16:52:04.867Z,5.38
2017-03-16T16:53:04.673Z,6.87
2017-03-16T16:54:05.199Z,6.17
2017-03-16T16:55:05.008Z,7.43
2017-03-16T16:56:04.770Z,8.20
2017-03-16T16:57:04.540Z,7.83
2017-03-16T16:58:04.328Z,7.72
2017-03-16T16:59:04.082Z,10.00
2017-03-16T17:00:03.950Z,7.80
2017-03-16T17:01:03.869Z,8.23
2017-03-16T17:02:03.687Z,7.18
2017-03-16T17:03:03.485Z,6.82
2017-03-16T17:04:03.270Z,7.98
2017-03-16T17:05:03.040Z,7.05